Time;durP1;ratioP1;P1;durP2;ratioP2;P2;SDS_P1;SDS_P2;PMS_P1;PMS_P2;Temp;Humidity;BMP_temperature;BMP_pressure;BME280_temperature;BME280_humidity;BME280_pressure;Samples;Min_cycle;Max_cycle;Signal;HPM_P1;HPM_P2
2023/04/13 00:00:09;;;;;;;8.20;3.90;;;;;;;;;;5115004;28;20027;-85
2023/04/13 00:02:37;;;;;;;12.20;4.82;;;;;;;;;;5080713;28;20471;-85
2023/04/13 00:05:12;;;;;;;13.45;5.82;;;;;;;;;;5080302;28;20039;-85
2023/04/13 00:07:38;;;;;;;5.97;3.72;;;;;;;;;;5096555;28;20031;-85
2023/04/13 00:10:05;;;;;;;11.45;4.05;;;;;;;;;;5113664;28;20338;-85
2023/04/13 00:12:32;;;;;;;6.95;3.78;;;;;;;;;;5096411;28;20142;-85
2023/04/13 00:14:57;;;;;;;6.95;3.78;;;;;;;;;;5097047;28;20027;-85
2023/04/13 00:17:25;;;;;;;11.65;3.63;;;;;;;;;;5096843;28;20126;-85
2023/04/13 00:19:52;;;;;;;7.25;3.38;;;;;;;;;;5080038;28;20035;-85
2023/04/13 00:22:18;;;;;;;7.22;3.70;;;;;;;;;;5113340;28;20035;-86
2023/04/13 00:24:44;;;;;;;4.95;3.17;;;;;;;;;;5079858;28;20028;-85
2023/04/13 00:27:10;;;;;;;7.35;3.30;;;;;;;;;;5096550;28;20054;-86
2023/04/13 00:29:36;;;;;;;10.57;3.78;;;;;;;;;;5113461;28;20034;-86
2023/04/13 00:32:03;;;;;;;7.15;3.55;;;;;;;;;;5089315;28;20032;-83
2023/04/13 00:34:28;;;;;;;8.55;3.22;;;;;;;;;;5092930;28;20123;-85
2023/04/13 00:36:54;;;;;;;5.90;3.25;;;;;;;;;;5076851;28;20119;-86
2023/04/13 00:39:22;;;;;;;7.07;3.25;;;;;;;;;;5076510;28;20028;-84
2023/04/13 00:41:49;;;;;;;6.35;3.33;;;;;;;;;;5078457;28;20104;-86
2023/04/13 00:44:18;;;;;;;6.32;3.03;;;;;;;;;;5078793;28;20032;-86
2023/04/13 00:46:46;;;;;;;5.65;3.45;;;;;;;;;;5078379;28;20365;-87
2023/04/13 00:49:14;;;;;;;8.70;3.35;;;;;;;;;;5095129;28;20441;-86
2023/04/13 00:51:40;;;;;;;6.78;3.30;;;;;;;;;;5077429;28;20403;-87
2023/04/13 00:54:06;;;;;;;6.43;3.13;;;;;;;;;;5077190;28;20118;-86
2023/04/13 00:56:32;;;;;;;6.28;3.05;;;;;;;;;;5094352;28;20410;-84
2023/04/13 00:58:58;;;;;;;4.47;2.83;;;;;;;;;;5092956;28;20415;-83
2023/04/13 01:01:24;;;;;;;6.20;3.10;;;;;;;;;;5079755;28;20027;-83
2023/04/13 01:03:52;;;;;;;8.88;3.35;;;;;;;;;;5117564;28;20077;-84
2023/04/13 01:06:30;;;;;;;6.05;3.10;;;;;;;;;;5101260;28;20019;-83
2023/04/13 01:09:00;;;;;;;6.35;3.20;;;;;;;;;;5103197;28;20106;-84
2023/04/13 01:12:04;;;;;;;6.65;3.47;;;;;;;;;;5101530;28;20052;-86
2023/04/13 01:14:36;;;;;;;8.45;3.83;;;;;;;;;;5046395;28;20479;-85
2023/04/13 01:17:08;;;;;;;8.65;4.10;;;;;;;;;;5117878;28;20061;-85
2023/04/13 01:19:52;;;;;;;7.95;3.95;;;;;;;;;;5100249;28;20055;-84
2023/04/13 01:22:20;;;;;;;10.40;3.88;;;;;;;;;;5117924;28;20035;-85
2023/04/13 01:25:13;;;;;;;8.38;3.72;;;;;;;;;;5116717;28;20084;-84
2023/04/13 01:27:41;;;;;;;10.88;3.90;;;;;;;;;;5116873;28;20023;-85
2023/04/13 01:30:10;;;;;;;8.85;3.97;;;;;;;;;;5117936;28;20059;-85
2023/04/13 01:32:41;;;;;;;9.25;4.45;;;;;;;;;;5080190;28;20410;-84
2023/04/13 01:35:09;;;;;;;8.85;4.30;;;;;;;;;;5116326;28;20441;-84
2023/04/13 01:37:37;;;;;;;7.90;4.10;;;;;;;;;;5100252;28;20023;-85
2023/04/13 01:40:11;;;;;;;7.70;3.83;;;;;;;;;;5099668;28;20036;-83
2023/04/13 01:42:41;;;;;;;7.80;4.00;;;;;;;;;;5116573;28;20053;-84
2023/04/13 01:45:14;;;;;;;7.45;3.70;;;;;;;;;;5116318;28;20414;-84
2023/04/13 01:47:43;;;;;;;9.10;4.05;;;;;;;;;;5083221;28;20326;-84
2023/04/13 01:50:16;;;;;;;7.15;3.80;;;;;;;;;;5099386;28;20437;-84
2023/04/13 01:52:42;;;;;;;8.15;3.58;;;;;;;;;;5108661;28;20166;-84
2023/04/13 01:55:08;;;;;;;9.50;3.28;;;;;;;;;;5116613;28;20398;-83
2023/04/13 01:57:34;;;;;;;7.25;3.10;;;;;;;;;;5105072;28;20023;-83
2023/04/13 02:00:12;;;;;;;7.55;4.20;;;;;;;;;;5116001;28;20329;-84
2023/04/13 02:02:38;;;;;;;7.97;3.65;;;;;;;;;;5085167;28;20097;-82
2023/04/13 02:05:03;;;;;;;8.18;3.70;;;;;;;;;;5121218;28;20035;-81
2023/04/13 02:07:29;;;;;;;8.13;3.95;;;;;;;;;;5122804;28;20036;-84
2023/04/13 02:09:54;;;;;;;5.10;3.17;;;;;;;;;;5122560;28;20031;-83
2023/04/13 02:12:20;;;;;;;10.05;3.80;;;;;;;;;;5134597;28;20016;-83
2023/04/13 02:14:45;;;;;;;7.25;3.65;;;;;;;;;;5127734;28;20353;-83
2023/04/13 02:17:11;;;;;;;6.53;4.00;;;;;;;;;;5122318;28;20024;-83
2023/04/13 02:19:36;;;;;;;7.55;3.65;;;;;;;;;;5134406;28;20043;-84
2023/04/13 02:22:02;;;;;;;8.52;3.88;;;;;;;;;;5098627;28;20553;-84
2023/04/13 02:24:29;;;;;;;6.75;3.50;;;;;;;;;;5098423;28;20027;-85
2023/04/13 02:26:55;;;;;;;7.45;4.00;;;;;;;;;;5116908;27;20027;-85
2023/04/13 02:29:21;;;;;;;8.38;3.83;;;;;;;;;;5115837;28;20088;-85
2023/04/13 02:31:47;;;;;;;13.32;4.40;;;;;;;;;;5118882;28;20023;-84
2023/04/13 02:34:13;;;;;;;8.38;4.07;;;;;;;;;;5113404;28;20118;-85
2023/04/13 02:36:39;;;;;;;7.38;3.92;;;;;;;;;;5114139;28;20143;-85
2023/04/13 02:39:05;;;;;;;9.27;3.97;;;;;;;;;;5116300;28;20028;-84
2023/04/13 02:41:30;;;;;;;10.02;4.57;;;;;;;;;;5115086;28;20373;-85
2023/04/13 02:43:55;;;;;;;8.30;4.30;;;;;;;;;;5116365;28;20441;-85
2023/04/13 02:46:22;;;;;;;8.73;4.07;;;;;;;;;;5114874;28;20031;-85
2023/04/13 02:48:47;;;;;;;8.73;4.28;;;;;;;;;;5115071;28;20035;-85
2023/04/13 02:51:13;;;;;;;7.78;4.15;;;;;;;;;;5116117;28;20031;-85
2023/04/13 02:53:38;;;;;;;8.10;4.38;;;;;;;;;;5116035;28;20164;-85
2023/04/13 02:56:05;;;;;;;9.10;4.65;;;;;;;;;;5114800;28;20030;-84
2023/04/13 02:58:31;;;;;;;7.07;4.68;;;;;;;;;;5115879;28;20031;-85
2023/04/13 03:00:57;;;;;;;8.13;4.65;;;;;;;;;;5114439;28;20031;-85
2023/04/13 03:03:23;;;;;;;8.73;4.38;;;;;;;;;;5114845;28;20093;-85
2023/04/13 03:05:49;;;;;;;8.60;4.28;;;;;;;;;;5116115;28;20032;-85
2023/04/13 03:08:16;;;;;;;7.55;4.20;;;;;;;;;;5115335;28;20036;-85
2023/04/13 03:10:43;;;;;;;7.85;4.18;;;;;;;;;;5114484;28;20039;-85
2023/04/13 03:13:09;;;;;;;9.13;4.28;;;;;;;;;;5081785;28;20416;-85
2023/04/13 03:15:35;;;;;;;13.70;3.83;;;;;;;;;;5114576;28;20062;-85
2023/04/13 03:18:02;;;;;;;12.38;4.40;;;;;;;;;;5097733;28;20035;-85
2023/04/13 03:20:28;;;;;;;10.43;4.50;;;;;;;;;;5114538;28;20024;-85
2023/04/13 03:22:57;;;;;;;9.25;3.85;;;;;;;;;;5114535;28;20023;-86
2023/04/13 03:25:22;;;;;;;11.85;4.07;;;;;;;;;;5097653;28;20035;-85
2023/04/13 03:27:48;;;;;;;7.93;4.20;;;;;;;;;;5115617;28;20080;-85
2023/04/13 03:30:13;;;;;;;8.55;4.10;;;;;;;;;;5114259;28;20398;-86
2023/04/13 03:32:39;;;;;;;11.90;3.80;;;;;;;;;;5097582;28;20028;-85
2023/04/13 03:35:05;;;;;;;8.18;3.80;;;;;;;;;;5114250;28;20029;-85
2023/04/13 03:37:38;;;;;;;9.32;4.35;;;;;;;;;;5110846;28;20341;-85
2023/04/13 03:40:07;;;;;;;9.43;4.68;;;;;;;;;;5113850;28;20027;-85
2023/04/13 03:42:33;;;;;;;9.23;4.13;;;;;;;;;;5080750;28;20023;-85
2023/04/13 03:44:58;;;;;;;11.38;4.55;;;;;;;;;;5080230;28;20153;-85
2023/04/13 03:47:23;;;;;;;9.35;4.13;;;;;;;;;;5097356;28;20052;-85
2023/04/13 03:49:49;;;;;;;8.90;4.40;;;;;;;;;;5113776;28;20048;-84
2023/04/13 03:52:15;;;;;;;8.85;4.40;;;;;;;;;;5113733;28;20080;-86
2023/04/13 03:54:40;;;;;;;8.38;4.43;;;;;;;;;;5080105;28;20031;-83
2023/04/13 03:57:05;;;;;;;13.98;4.05;;;;;;;;;;5096686;28;20019;-83
2023/04/13 03:59:32;;;;;;;8.13;4.20;;;;;;;;;;5079426;28;20020;-83
2023/04/13 04:01:57;;;;;;;9.38;4.25;;;;;;;;;;5113624;28;20035;-84
2023/04/13 04:04:23;;;;;;;9.68;4.70;;;;;;;;;;5096531;28;20046;-86
2023/04/13 04:06:48;;;;;;;11.20;4.53;;;;;;;;;;5096871;28;20027;-86
2023/04/13 04:09:14;;;;;;;16.13;5.13;;;;;;;;;;5079943;28;20131;-86
2023/04/13 04:11:40;;;;;;;13.30;4.40;;;;;;;;;;5096848;28;20020;-84
2023/04/13 04:14:05;;;;;;;8.70;4.28;;;;;;;;;;5096792;28;20019;-84
2023/04/13 04:16:31;;;;;;;8.70;4.47;;;;;;;;;;5113570;28;20465;-84
2023/04/13 04:18:56;;;;;;;12.40;4.80;;;;;;;;;;5096699;28;20445;-84
2023/04/13 04:21:22;;;;;;;9.95;4.47;;;;;;;;;;5113448;28;20027;-85
2023/04/13 04:23:47;;;;;;;9.68;4.45;;;;;;;;;;5114560;28;20019;-84
2023/04/13 04:26:14;;;;;;;13.57;4.75;;;;;;;;;;5096819;28;20019;-83
2023/04/13 04:28:40;;;;;;;12.35;5.05;;;;;;;;;;5096649;28;20034;-84
2023/04/13 04:31:09;;;;;;;10.82;5.78;;;;;;;;;;5113499;28;20027;-84
2023/04/13 04:33:37;;;;;;;10.18;5.97;;;;;;;;;;5113428;28;20063;-84
2023/04/13 04:36:07;;;;;;;11.07;5.07;;;;;;;;;;5080437;28;20031;-84
2023/04/13 04:38:32;;;;;;;8.23;3.92;;;;;;;;;;5093715;28;20026;-84
2023/04/13 04:40:58;;;;;;;6.35;4.20;;;;;;;;;;5096630;28;20039;-84
2023/04/13 04:43:28;;;;;;;8.05;4.03;;;;;;;;;;5113465;28;20066;-84
2023/04/13 04:45:56;;;;;;;10.25;4.10;;;;;;;;;;5097865;28;20126;-84
2023/04/13 04:48:23;;;;;;;9.27;4.07;;;;;;;;;;5115525;28;20032;-85
2023/04/13 04:50:51;;;;;;;9.02;3.50;;;;;;;;;;5116591;28;20449;-84
2023/04/13 04:53:17;;;;;;;5.70;3.17;;;;;;;;;;5114954;28;20028;-83
2023/04/13 04:55:42;;;;;;;11.48;3.17;;;;;;;;;;5113971;28;20077;-84
2023/04/13 04:58:07;;;;;;;7.40;3.50;;;;;;;;;;5114675;28;20377;-84
2023/04/13 05:00:33;;;;;;;10.23;3.28;;;;;;;;;;5113713;28;20028;-83
2023/04/13 05:02:59;;;;;;;6.20;3.33;;;;;;;;;;5114054;28;20119;-84
2023/04/13 05:05:25;;;;;;;9.05;3.30;;;;;;;;;;5114734;28;20031;-85
2023/04/13 05:07:50;;;;;;;7.03;3.83;;;;;;;;;;5098188;28;20024;-83
2023/04/13 05:10:16;;;;;;;27.70;10.65;;;;;;;;;;5114189;28;20027;-84
2023/04/13 05:12:41;;;;;;;12.27;4.13;;;;;;;;;;5112573;28;20106;-84
2023/04/13 05:15:07;;;;;;;11.15;5.13;;;;;;;;;;5112454;28;20024;-84
2023/04/13 05:17:33;;;;;;;6.55;3.63;;;;;;;;;;5095985;28;20024;-84
2023/04/13 05:19:59;;;;;;;18.67;9.55;;;;;;;;;;5113136;28;20460;-85
2023/04/13 05:22:24;;;;;;;8.90;4.75;;;;;;;;;;5096047;28;20095;-85
2023/04/13 05:24:49;;;;;;;13.15;4.13;;;;;;;;;;5112613;28;20020;-85
2023/04/13 05:27:16;;;;;;;13.32;3.80;;;;;;;;;;5112330;28;20076;-85
2023/04/13 05:29:41;;;;;;;6.97;4.03;;;;;;;;;;5113027;28;20081;-85
2023/04/13 05:32:07;;;;;;;13.80;4.38;;;;;;;;;;5095967;28;20019;-85
2023/04/13 05:34:34;;;;;;;15.38;5.43;;;;;;;;;;5112680;28;20027;-83
2023/04/13 05:37:01;;;;;;;10.98;5.10;;;;;;;;;;5096231;28;20050;-85
2023/04/13 05:39:27;;;;;;;8.20;4.38;;;;;;;;;;5095984;28;20330;-86
2023/04/13 05:41:52;;;;;;;10.85;4.80;;;;;;;;;;5088639;28;20043;-85
2023/04/13 05:44:18;;;;;;;7.30;4.38;;;;;;;;;;5092033;28;20024;-85
2023/04/13 05:46:43;;;;;;;8.23;4.60;;;;;;;;;;5058796;28;20057;-87
2023/04/13 05:49:09;;;;;;;8.25;4.60;;;;;;;;;;5093545;28;20472;-83
2023/04/13 05:51:35;;;;;;;9.90;4.70;;;;;;;;;;5095707;28;20023;-84
2023/04/13 05:54:00;;;;;;;10.52;5.50;;;;;;;;;;5078493;28;20020;-83
2023/04/13 05:56:28;;;;;;;14.10;5.90;;;;;;;;;;5061897;28;20359;-84
2023/04/13 05:58:53;;;;;;;12.02;5.45;;;;;;;;;;5095568;28;20031;-84
2023/04/13 06:01:19;;;;;;;18.40;6.25;;;;;;;;;;5061958;28;20369;-84
2023/04/13 06:03:45;;;;;;;15.23;6.75;;;;;;;;;;5095165;28;20410;-84
2023/04/13 06:06:11;;;;;;;16.02;9.23;;;;;;;;;;5061880;28;20108;-85
2023/04/13 06:08:37;;;;;;;25.55;13.18;;;;;;;;;;5078942;28;20024;-84
2023/04/13 06:11:03;;;;;;;28.15;13.75;;;;;;;;;;5078290;28;20089;-84
2023/04/13 06:13:29;;;;;;;18.35;9.40;;;;;;;;;;5079029;28;20040;-82
2023/04/13 06:15:55;;;;;;;21.17;10.15;;;;;;;;;;5078819;28;20377;-84
2023/04/13 06:18:21;;;;;;;22.63;11.57;;;;;;;;;;5078910;28;20028;-82
2023/04/13 06:20:47;;;;;;;23.50;11.60;;;;;;;;;;5095342;28;20020;-85
2023/04/13 06:23:13;;;;;;;28.13;11.00;;;;;;;;;;5095501;28;20058;-84
2023/04/13 06:25:39;;;;;;;25.92;14.98;;;;;;;;;;5078306;28;20028;-85
2023/04/13 06:28:04;;;;;;;28.63;11.27;;;;;;;;;;5095162;28;20027;-84
2023/04/13 06:30:30;;;;;;;26.38;10.35;;;;;;;;;;5095064;28;20028;-85
2023/04/13 06:32:56;;;;;;;25.92;9.95;;;;;;;;;;5095086;28;20036;-85
2023/04/13 06:35:22;;;;;;;24.77;9.85;;;;;;;;;;5078393;28;20020;-85
2023/04/13 06:37:47;;;;;;;22.85;8.25;;;;;;;;;;5095046;28;20181;-84
2023/04/13 06:40:13;;;;;;;18.92;7.60;;;;;;;;;;5094960;28;20038;-84
2023/04/13 06:42:40;;;;;;;23.50;8.10;;;;;;;;;;5099960;28;20039;-83
2023/04/13 06:45:09;;;;;;;24.63;8.18;;;;;;;;;;5115148;28;20062;-84
2023/04/13 06:47:36;;;;;;;19.95;7.60;;;;;;;;;;5116251;28;20058;-83
2023/04/13 06:50:05;;;;;;;18.55;6.93;;;;;;;;;;5115106;28;20130;-83
2023/04/13 06:52:34;;;;;;;26.35;10.05;;;;;;;;;;5114611;28;20028;-84
2023/04/13 06:55:00;;;;;;;57.15;20.00;;;;;;;;;;5114729;28;20088;-83
2023/04/13 06:57:25;;;;;;;45.40;14.88;;;;;;;;;;5098078;28;20039;-84
2023/04/13 06:59:51;;;;;;;22.02;7.38;;;;;;;;;;5115091;28;20027;-85
2023/04/13 07:02:16;;;;;;;57.53;26.63;;;;;;;;;;5114360;28;20047;-84
2023/04/13 07:04:42;;;;;;;29.85;11.68;;;;;;;;;;5114760;28;20027;-85
2023/04/13 07:07:07;;;;;;;32.40;12.98;;;;;;;;;;5097297;28;20055;-84
2023/04/13 07:09:33;;;;;;;57.92;19.92;;;;;;;;;;5114632;28;20362;-85
2023/04/13 07:12:06;;;;;;;55.40;24.38;;;;;;;;;;5114376;28;20373;-85
2023/04/13 07:14:35;;;;;;;32.28;10.80;;;;;;;;;;5097588;28;20539;-84
2023/04/13 07:17:01;;;;;;;;;;;;;;;;;;5114996;28;20031;-85
2023/04/13 07:19:28;;;;;;;37.38;16.85;;;;;;;;;;5116212;28;20347;-86
2023/04/13 07:21:54;;;;;;;103.05;43.25;;;;;;;;;;5114226;28;20421;-85
2023/04/13 07:24:20;;;;;;;34.38;13.75;;;;;;;;;;5080680;28;20085;-85
2023/04/13 07:26:45;;;;;;;102.03;15.55;;;;;;;;;;5097331;28;20027;-84
2023/04/13 07:29:12;;;;;;;39.58;11.13;;;;;;;;;;5115679;28;20059;-83
2023/04/13 07:31:40;;;;;;;48.05;12.13;;;;;;;;;;5115732;28;20035;-85
2023/04/13 07:34:05;;;;;;;59.33;13.30;;;;;;;;;;5115730;27;20057;-86
2023/04/13 07:36:31;;;;;;;55.22;11.05;;;;;;;;;;5113834;28;20364;-85
2023/04/13 07:38:57;;;;;;;19.02;9.65;;;;;;;;;;5114311;28;20038;-85
2023/04/13 07:41:23;;;;;;;25.77;9.60;;;;;;;;;;5113960;28;20463;-83
2023/04/13 07:43:49;;;;;;;20.13;7.68;;;;;;;;;;5076829;28;20032;-83
2023/04/13 07:46:14;;;;;;;22.92;8.30;;;;;;;;;;5076716;28;20053;-83
2023/04/13 07:48:40;;;;;;;20.98;7.97;;;;;;;;;;5093537;28;20024;-84
2023/04/13 07:51:06;;;;;;;17.98;8.02;;;;;;;;;;5059460;28;20093;-84
2023/04/13 07:53:31;;;;;;;23.52;7.80;;;;;;;;;;5076799;28;20024;-83
2023/04/13 07:55:57;;;;;;;19.73;8.45;;;;;;;;;;5060078;28;20035;-84
2023/04/13 07:58:23;;;;;;;19.92;8.85;;;;;;;;;;5076529;28;20028;-84
2023/04/13 08:00:48;;;;;;;17.25;7.80;;;;;;;;;;5093306;28;20031;-83
2023/04/13 08:03:14;;;;;;;21.77;7.88;;;;;;;;;;5093095;28;20146;-84
2023/04/13 08:05:40;;;;;;;18.60;7.80;;;;;;;;;;5076122;28;20357;-83
2023/04/13 08:08:05;;;;;;;19.50;7.97;;;;;;;;;;5059706;28;20031;-83
2023/04/13 08:10:31;;;;;;;16.42;7.10;;;;;;;;;;5076190;28;20283;-83
2023/04/13 08:12:56;;;;;;;25.73;7.55;;;;;;;;;;5075873;28;20044;-83
2023/04/13 08:15:23;;;;;;;17.92;7.35;;;;;;;;;;5093308;28;20060;-85
2023/04/13 08:17:48;;;;;;;21.15;7.85;;;;;;;;;;5076264;28;20499;-83
2023/04/13 08:20:13;;;;;;;14.60;6.90;;;;;;;;;;5075834;28;20024;-83
2023/04/13 08:22:39;;;;;;;22.38;7.38;;;;;;;;;;5076160;28;20063;-83
2023/04/13 08:25:06;;;;;;;17.40;6.68;;;;;;;;;;5076049;28;20107;-82
2023/04/13 08:27:31;;;;;;;19.73;6.97;;;;;;;;;;5093904;28;20020;-83
2023/04/13 08:30:00;;;;;;;34.40;7.47;;;;;;;;;;5075994;28;20024;-84
2023/04/13 08:32:27;;;;;;;16.33;7.37;;;;;;;;;;5060240;28;20028;-84
2023/04/13 08:34:53;;;;;;;17.48;7.40;;;;;;;;;;5059966;28;20817;-85
2023/04/13 08:37:19;;;;;;;21.38;7.72;;;;;;;;;;5093448;28;20084;-85
2023/04/13 08:39:47;;;;;;;22.83;7.55;;;;;;;;;;5076347;28;20040;-86
2023/04/13 08:42:12;;;;;;;22.95;6.63;;;;;;;;;;5076935;28;20032;-86
2023/04/13 08:44:41;;;;;;;20.83;7.18;;;;;;;;;;5074997;28;20400;-85
2023/04/13 08:47:09;;;;;;;17.70;7.35;;;;;;;;;;5093499;28;20180;-87
2023/04/13 08:49:35;;;;;;;17.15;6.50;;;;;;;;;;5076332;28;20418;-85
2023/04/13 08:52:03;;;;;;;21.25;7.18;;;;;;;;;;5093310;28;20036;-85
2023/04/13 08:54:29;;;;;;;12.32;6.68;;;;;;;;;;5092944;28;20081;-88
2023/04/13 08:56:56;;;;;;;19.25;8.43;;;;;;;;;;5093428;28;20028;-89
2023/04/13 08:59:26;;;;;;;16.10;6.00;;;;;;;;;;5094888;28;20020;-89
2023/04/13 09:01:55;;;;;;;16.60;6.03;;;;;;;;;;5093440;28;20131;-86
2023/04/13 09:04:22;;;;;;;16.88;6.68;;;;;;;;;;5094021;28;20071;-91
2023/04/13 09:06:58;;;;;;;14.18;6.57;;;;;;;;;;5078351;28;20028;-89
2023/04/13 09:09:26;;;;;;;27.13;7.45;;;;;;;;;;5095822;28;20039;-86
2023/04/13 09:11:52;;;;;;;15.13;6.35;;;;;;;;;;5094065;28;20032;-89
2023/04/13 09:14:20;;;;;;;16.92;7.47;;;;;;;;;;5077306;28;20043;-88
2023/04/13 09:16:46;;;;;;;15.02;6.50;;;;;;;;;;5093690;28;20024;-90
2023/04/13 09:19:12;;;;;;;16.27;6.63;;;;;;;;;;5092728;28;20047;-88
2023/04/13 09:21:42;;;;;;;39.97;7.20;;;;;;;;;;5093415;28;20055;-87
2023/04/13 09:24:08;;;;;;;21.73;6.20;;;;;;;;;;5095938;28;20138;-86
2023/04/13 09:26:48;;;;;;;20.38;5.95;;;;;;;;;;5097321;28;20132;-91
2023/04/13 09:29:17;;;;;;;11.90;5.22;;;;;;;;;;5113562;28;20115;-86
2023/04/13 09:31:43;;;;;;;22.70;6.00;;;;;;;;;;5079364;28;20038;-87
2023/04/13 09:34:09;;;;;;;20.52;5.38;;;;;;;;;;5096021;28;20039;-83
2023/04/13 09:36:36;;;;;;;16.85;5.47;;;;;;;;;;5095929;28;20081;-83
2023/04/13 09:39:02;;;;;;;14.15;4.50;;;;;;;;;;5079405;28;20032;-86
2023/04/13 09:41:35;;;;;;;18.23;6.70;;;;;;;;;;5079291;28;20047;-84
2023/04/13 09:44:23;;;;;;;31.10;15.32;;;;;;;;;;5083003;28;20028;-83
2023/04/13 09:47:02;;;;;;;23.63;5.20;;;;;;;;;;5116455;28;20028;-84
2023/04/13 09:49:40;;;;;;;18.23;5.28;;;;;;;;;;5099349;28;20024;-84
2023/04/13 09:52:07;;;;;;;18.05;5.20;;;;;;;;;;5116067;28;20122;-85
2023/04/13 09:57:24;;;;;;;7.30;3.60;;;;;;;;;;5117775;28;20030;-85
2023/04/13 09:59:52;;;;;;;12.10;4.43;;;;;;;;;;5118494;28;20125;-85
2023/04/13 10:02:18;;;;;;;7.18;4.30;;;;;;;;;;5082713;28;20024;-85
2023/04/13 10:04:44;;;;;;;14.80;4.90;;;;;;;;;;5116300;28;20467;-86
2023/04/13 10:07:10;;;;;;;23.88;4.65;;;;;;;;;;5116814;28;20023;-86
2023/04/13 10:09:35;;;;;;;20.80;4.47;;;;;;;;;;5100009;28;20028;-86
2023/04/13 10:12:02;;;;;;;21.00;4.32;;;;;;;;;;5116210;28;20122;-86
2023/04/13 10:14:30;;;;;;;18.70;4.50;;;;;;;;;;5098879;28;20125;-86
2023/04/13 10:17:06;;;;;;;16.52;5.00;;;;;;;;;;5098879;28;20039;-85
2023/04/13 10:19:42;;;;;;;12.95;4.30;;;;;;;;;;5116027;28;20034;-86
2023/04/13 10:22:07;;;;;;;11.35;4.50;;;;;;;;;;5099449;28;20028;-86
2023/04/13 10:24:32;;;;;;;12.07;4.10;;;;;;;;;;5115829;28;20136;-85
2023/04/13 10:27:01;;;;;;;9.88;4.55;;;;;;;;;;5116015;28;20106;-83
2023/04/13 10:29:27;;;;;;;12.85;4.18;;;;;;;;;;5115436;28;20505;-86
2023/04/13 10:31:55;;;;;;;14.20;4.95;;;;;;;;;;5098433;28;20464;-84
2023/04/13 10:34:27;;;;;;;12.63;4.57;;;;;;;;;;5098248;28;20039;-87
2023/04/13 10:36:57;;;;;;;14.65;4.45;;;;;;;;;;5098975;28;20034;-85
2023/04/13 10:39:32;;;;;;;9.85;4.32;;;;;;;;;;5115738;28;20425;-85
2023/04/13 10:42:01;;;;;;;15.57;4.70;;;;;;;;;;5082278;28;20031;-85
2023/04/13 10:44:47;;;;;;;10.23;4.30;;;;;;;;;;5115184;28;20038;-86
2023/04/13 10:47:14;;;;;;;15.73;5.20;;;;;;;;;;5114763;28;20478;-86
2023/04/13 10:49:40;;;;;;;12.30;4.10;;;;;;;;;;5115214;28;20032;-86
2023/04/13 10:52:06;;;;;;;12.32;4.70;;;;;;;;;;5098978;28;20125;-85
2023/04/13 10:54:36;;;;;;;10.88;5.03;;;;;;;;;;5081722;28;20047;-86
2023/04/13 10:57:05;;;;;;;;;;;;;;;;;;5099099;28;20118;-85
2023/04/13 10:59:52;;;;;;;13.85;4.28;;;;;;;;;;5098390;28;19912;-86
2023/04/13 11:02:18;;;;;;;12.27;4.55;;;;;;;;;;5115010;28;20027;-84
2023/04/13 11:04:44;;;;;;;10.85;3.97;;;;;;;;;;5098112;28;20111;-85
2023/04/13 11:07:14;;;;;;;9.98;4.68;;;;;;;;;;5114960;28;20028;-86
2023/04/13 11:09:42;;;;;;;19.25;4.63;;;;;;;;;;5098042;28;20073;-86
2023/04/13 11:12:08;;;;;;;19.08;4.75;;;;;;;;;;5098080;28;20032;-86
2023/04/13 11:14:37;;;;;;;10.77;4.40;;;;;;;;;;5114327;28;20028;-86
2023/04/13 11:17:06;;;;;;;13.63;4.53;;;;;;;;;;5098230;28;20023;-86
2023/04/13 11:19:44;;;;;;;14.95;4.53;;;;;;;;;;5081322;28;20436;-85
2023/04/13 11:22:09;;;;;;;12.40;4.40;;;;;;;;;;5097829;28;20036;-85
2023/04/13 11:24:40;;;;;;;15.32;4.80;;;;;;;;;;5097326;28;20034;-86
2023/04/13 11:27:22;;;;;;;9.35;4.35;;;;;;;;;;5081949;28;20028;-86
2023/04/13 11:30:08;;;;;;;13.93;4.78;;;;;;;;;;5114528;28;20069;-86
2023/04/13 11:32:35;;;;;;;12.50;4.00;;;;;;;;;;5099769;28;20356;-85
2023/04/13 11:35:04;;;;;;;9.60;4.22;;;;;;;;;;5080769;28;20046;-84
2023/04/13 11:37:37;;;;;;;8.77;4.03;;;;;;;;;;5115506;28;20028;-84
2023/04/13 11:40:13;;;;;;;14.52;4.10;;;;;;;;;;5081098;28;20027;-85
2023/04/13 11:42:41;;;;;;;11.43;3.72;;;;;;;;;;5082367;28;20097;-84
2023/04/13 11:45:07;;;;;;;11.15;4.28;;;;;;;;;;5073882;28;20471;-84
2023/04/13 11:47:33;;;;;;;13.43;4.45;;;;;;;;;;5110482;28;20130;-85
2023/04/13 11:49:59;;;;;;;12.57;4.38;;;;;;;;;;5080896;28;20032;-85
2023/04/13 11:52:25;;;;;;;13.27;4.82;;;;;;;;;;5080273;28;20046;-86
2023/04/13 11:54:50;;;;;;;9.88;4.25;;;;;;;;;;5113806;28;20114;-85
2023/04/13 11:57:17;;;;;;;9.60;4.30;;;;;;;;;;5096732;28;20067;-86
2023/04/13 11:59:43;;;;;;;8.43;4.22;;;;;;;;;;5096937;28;20069;-85
2023/04/13 12:02:09;;;;;;;10.88;4.22;;;;;;;;;;5080218;28;20027;-86
2023/04/13 12:04:39;;;;;;;18.80;4.90;;;;;;;;;;5114810;28;20043;-86
2023/04/13 12:07:14;;;;;;;10.90;4.20;;;;;;;;;;5097055;28;20020;-84
2023/04/13 12:09:42;;;;;;;11.52;4.80;;;;;;;;;;5080792;28;20031;-84
2023/04/13 12:12:17;;;;;;;13.32;4.70;;;;;;;;;;5096390;28;20168;-85
2023/04/13 12:14:42;;;;;;;15.50;4.22;;;;;;;;;;5113647;28;20093;-84
2023/04/13 12:17:11;;;;;;;15.98;4.15;;;;;;;;;;5080135;28;20096;-84
2023/04/13 12:19:40;;;;;;;11.38;4.30;;;;;;;;;;5080311;28;20051;-84
2023/04/13 12:22:05;;;;;;;12.25;4.50;;;;;;;;;;5113394;28;20122;-85
2023/04/13 12:24:35;;;;;;;14.23;4.60;;;;;;;;;;5113909;28;20165;-85
2023/04/13 12:27:02;;;;;;;13.23;4.60;;;;;;;;;;5113197;28;20035;-86
2023/04/13 12:29:27;;;;;;;13.95;4.32;;;;;;;;;;5096696;28;20027;-85
2023/04/13 12:31:54;;;;;;;16.63;4.72;;;;;;;;;;5113678;28;20041;-86
2023/04/13 12:34:21;;;;;;;13.07;4.00;;;;;;;;;;5096906;28;20038;-85
2023/04/13 12:36:46;;;;;;;9.93;4.18;;;;;;;;;;5081637;28;20126;-86
2023/04/13 12:39:12;;;;;;;11.52;4.47;;;;;;;;;;5083814;28;20058;-85
2023/04/13 12:41:40;;;;;;;10.15;4.22;;;;;;;;;;5100232;28;20032;-84
2023/04/13 12:44:05;;;;;;;9.30;3.88;;;;;;;;;;5098103;28;20066;-85
2023/04/13 12:46:31;;;;;;;11.27;3.85;;;;;;;;;;5111752;28;20057;-85
2023/04/13 12:48:56;;;;;;;13.13;4.10;;;;;;;;;;5096655;28;20035;-86
2023/04/13 12:54:44;;;;;;;10.32;3.88;;;;;;;;;;5121970;22;20121;-83
2023/04/13 12:59:53;;;;;;;11.02;3.75;;;;;;;;;;5117758;28;20047;-85
2023/04/13 13:02:18;;;;;;;7.25;4.18;;;;;;;;;;5096210;22;20076;-85
2023/04/13 13:04:44;;;;;;;8.88;4.28;;;;;;;;;;5061072;28;20036;-85
2023/04/13 13:07:09;;;;;;;18.85;4.47;;;;;;;;;;5060201;28;20027;-85
2023/04/13 13:09:35;;;;;;;10.57;4.65;;;;;;;;;;5077365;28;20028;-84
2023/04/13 13:12:01;;;;;;;14.90;4.50;;;;;;;;;;5059661;28;20028;-85
2023/04/13 13:14:27;;;;;;;11.25;4.32;;;;;;;;;;5076768;28;20501;-85
2023/04/13 13:16:52;;;;;;;10.60;4.30;;;;;;;;;;5093503;28;20133;-83
2023/04/13 13:19:18;;;;;;;8.95;4.10;;;;;;;;;;5076567;28;20119;-85
2023/04/13 13:21:43;;;;;;;11.25;4.78;;;;;;;;;;5078449;28;20025;-85
2023/04/13 13:24:09;;;;;;;16.20;4.63;;;;;;;;;;5076429;28;20029;-86
2023/04/13 13:26:34;;;;;;;18.48;4.95;;;;;;;;;;5059988;28;20116;-84
2023/04/13 13:29:00;;;;;;;12.00;5.28;;;;;;;;;;5060136;28;20032;-86
2023/04/13 13:31:26;;;;;;;12.73;4.80;;;;;;;;;;5076210;28;20118;-85
2023/04/13 13:33:53;;;;;;;13.82;4.40;;;;;;;;;;5076671;28;20400;-86
2023/04/13 13:36:19;;;;;;;10.50;4.90;;;;;;;;;;5093279;28;20432;-86
2023/04/13 13:38:48;;;;;;;14.13;5.10;;;;;;;;;;5076271;28;20097;-86
2023/04/13 13:41:13;;;;;;;12.57;4.25;;;;;;;;;;5076353;28;20032;-87
2023/04/13 13:43:38;;;;;;;13.90;5.07;;;;;;;;;;5059415;28;20131;-86
2023/04/13 13:46:04;;;;;;;9.57;4.63;;;;;;;;;;5092891;28;20024;-86
2023/04/13 13:48:30;;;;;;;10.02;4.65;;;;;;;;;;5078136;28;20565;-86
2023/04/13 13:50:56;;;;;;;13.85;4.53;;;;;;;;;;5055805;28;20028;-86
2023/04/13 13:53:21;;;;;;;13.43;4.22;;;;;;;;;;5055348;28;20056;-85
2023/04/13 13:55:48;;;;;;;12.07;4.18;;;;;;;;;;5039293;28;20021;-84
2023/04/13 13:58:14;;;;;;;7.47;4.40;;;;;;;;;;5055475;28;20021;-85
2023/04/13 14:00:40;;;;;;;9.95;4.60;;;;;;;;;;5039081;28;20025;-84
2023/04/13 14:03:07;;;;;;;9.20;4.00;;;;;;;;;;5022077;28;20049;-85
2023/04/13 14:05:32;;;;;;;12.68;4.57;;;;;;;;;;5056211;28;20032;-84
2023/04/13 14:07:58;;;;;;;10.82;4.28;;;;;;;;;;5038558;28;20512;-84
2023/04/13 14:10:26;;;;;;;13.98;4.30;;;;;;;;;;5054732;28;20116;-85
2023/04/13 14:12:53;;;;;;;14.88;5.00;;;;;;;;;;5038769;28;20043;-85
2023/04/13 14:15:19;;;;;;;10.70;4.03;;;;;;;;;;5039760;28;20029;-84
2023/04/13 14:17:44;;;;;;;10.50;4.10;;;;;;;;;;5055184;28;20031;-85
2023/04/13 14:20:10;;;;;;;15.65;4.65;;;;;;;;;;5056373;28;20120;-85
2023/04/13 14:23:39;;;;;;;12.45;4.65;;;;;;;;;;5039005;28;20033;-84
2023/04/13 14:26:35;;;;;;;8.93;4.57;;;;;;;;;;5056630;28;20028;-85
2023/04/13 14:29:21;;;;;;;8.63;4.45;;;;;;;;;;5055851;28;20029;-85
2023/04/13 14:31:46;;;;;;;9.23;4.90;;;;;;;;;;5054959;28;20037;-84
2023/04/13 14:34:12;;;;;;;10.73;4.47;;;;;;;;;;5055863;28;20032;-85
2023/04/13 14:36:38;;;;;;;17.40;4.72;;;;;;;;;;5055008;28;20029;-85
2023/04/13 14:39:04;;;;;;;11.05;4.30;;;;;;;;;;5021970;28;20473;-85
2023/04/13 14:41:29;;;;;;;17.20;4.70;;;;;;;;;;5055871;28;20371;-84
2023/04/13 14:43:55;;;;;;;14.80;4.40;;;;;;;;;;5038218;28;20033;-84